createdAt,value
2023-04-02T00:01:00.470Z,99422.06
2023-04-02T00:04:05.724Z,99424.34
2023-04-02T00:07:33.276Z,99420.28
2023-04-02T00:10:38.068Z,99437.31
2023-04-02T00:13:43.723Z,99429.69
2023-04-02T00:16:46.412Z,99441.47
2023-04-02T00:20:00.445Z,99435.16
2023-04-02T00:23:04.665Z,99440.47
2023-04-02T00:26:23.823Z,99440.62
2023-04-02T00:29:26.833Z,99449.31
2023-04-02T00:32:31.787Z,99449.38
2023-04-02T00:35:38.515Z,99454.25
2023-04-02T00:38:43.842Z,99442.06
2023-04-02T00:41:47.199Z,99439.69
2023-04-02T00:44:51.389Z,99448.41
2023-04-02T00:47:54.730Z,99441.28
2023-04-02T00:50:59.534Z,99446.50
2023-04-02T00:54:04.308Z,99449.31
2023-04-02T00:57:13.217Z,99451.13
2023-04-02T01:00:18.938Z,99456.56
2023-04-02T01:03:23.084Z,99456.69
2023-04-02T01:06:29.654Z,99456.38
2023-04-02T01:09:32.095Z,99455.13
2023-04-02T01:12:44.393Z,99458.50
2023-04-02T01:15:52.713Z,99450.28
2023-04-02T01:19:14.699Z,99455.03
2023-04-02T01:22:43.582Z,99450.72
2023-04-02T01:25:59.790Z,99459.03
2023-04-02T01:29:02.107Z,99459.75
2023-04-02T01:32:06.805Z,99455.41
2023-04-02T01:35:09.694Z,99453.00
2023-04-02T01:38:19.269Z,99448.72
2023-04-02T01:41:33.357Z,99454.72
2023-04-02T01:44:48.393Z,99447.81
2023-04-02T01:47:51.598Z,99457.34
2023-04-02T01:50:55.482Z,99462.53
2023-04-02T01:54:00.133Z,99461.84
2023-04-02T01:57:03.111Z,99460.72
2023-04-02T02:00:13.656Z,99474.59
2023-04-02T02:03:16.705Z,99480.66
2023-04-02T02:06:20.464Z,99474.34
2023-04-02T02:09:25.140Z,99478.47
2023-04-02T02:12:28.164Z,99480.09
2023-04-02T02:15:33.129Z,99480.94
2023-04-02T02:18:36.192Z,99486.25
2023-04-02T02:21:41.851Z,99485.63
2023-04-02T02:24:44.712Z,99478.09
2023-04-02T02:28:02.737Z,99487.50
2023-04-02T02:31:09.584Z,99484.13
2023-04-02T02:34:18.760Z,99480.69
2023-04-02T02:37:27.097Z,99484.41
2023-04-02T02:40:34.381Z,99477.78
2023-04-02T02:43:47.835Z,99483.56
2023-04-02T02:46:52.802Z,99484.63
2023-04-02T02:49:58.985Z,99483.00
2023-04-02T02:53:04.373Z,99481.69
2023-04-02T02:56:08.115Z,99483.22
2023-04-02T02:59:12.318Z,99487.03
2023-04-02T03:02:16.284Z,99484.41
2023-04-02T03:05:22.074Z,99479.53
2023-04-02T03:08:32.429Z,99479.66
2023-04-02T03:11:35.028Z,99485.59
2023-04-02T03:14:44.158Z,99480.81
2023-04-02T03:17:49.688Z,99484.44
2023-04-02T03:20:52.615Z,99497.81
2023-04-02T03:24:03.619Z,99490.72
2023-04-02T03:27:06.236Z,99490.72
2023-04-02T03:30:14.757Z,99492.59
2023-04-02T03:33:21.867Z,99500.06
2023-04-02T03:36:25.879Z,99498.47
2023-04-02T03:39:35.968Z,99499.44
2023-04-02T03:43:13.674Z,99501.22
2023-04-02T03:46:16.311Z,99500.38
2023-04-02T03:49:20.017Z,99506.16
2023-04-02T03:52:25.721Z,99498.44
2023-04-02T03:55:30.641Z,99511.88
2023-04-02T03:58:38.728Z,99512.97
2023-04-02T04:02:04.762Z,99514.41
2023-04-02T04:05:18.781Z,99525.78
2023-04-02T04:08:25.127Z,99532.53
2023-04-02T04:11:32.588Z,99531.50
2023-04-02T04:14:37.346Z,99526.56
2023-04-02T04:17:54.997Z,99534.78
2023-04-02T04:21:02.127Z,99535.56
2023-04-02T04:24:17.401Z,99539.59
2023-04-02T04:27:36.316Z,99538.75
2023-04-02T04:30:47.701Z,99534.31
2023-04-02T04:33:55.061Z,99536.78
2023-04-02T04:37:01.841Z,99533.03
2023-04-02T04:40:16.534Z,99532.91
2023-04-02T04:43:39.489Z,99526.03
2023-04-02T04:46:56.254Z,99531.28
2023-04-02T04:50:08.882Z,99543.50
2023-04-02T04:53:23.131Z,99541.66
2023-04-02T04:56:28.299Z,99534.72
2023-04-02T04:59:51.844Z,99542.44
2023-04-02T05:03:20.271Z,99537.34
2023-04-02T05:06:41.997Z,99535.53
2023-04-02T05:09:59.965Z,99537.66
2023-04-02T05:13:07.891Z,99545.69
2023-04-02T05:16:23.264Z,99546.00
2023-04-02T05:19:32.155Z,99549.38
2023-04-02T05:22:44.257Z,99552.81
2023-04-02T05:26:05.671Z,99564.53
2023-04-02T05:29:15.080Z,99573.69
2023-04-02T05:32:29.013Z,99566.66
2023-04-02T05:35:34.849Z,99561.16
2023-04-02T05:38:39.373Z,99572.75
2023-04-02T05:41:44.008Z,99570.38
2023-04-02T05:45:05.846Z,99582.28
2023-04-02T05:48:20.611Z,99595.19
2023-04-02T05:51:31.037Z,99589.84
2023-04-02T05:54:38.353Z,99595.47
2023-04-02T05:57:51.220Z,99598.53
2023-04-02T06:01:12.024Z,99584.25
2023-04-02T06:04:27.401Z,99590.22
2023-04-02T06:07:34.384Z,99585.38
2023-04-02T06:10:47.791Z,99590.91
2023-04-02T06:13:50.648Z,99583.31
2023-04-02T06:16:53.446Z,99590.72
2023-04-02T06:19:57.462Z,99597.28
2023-04-02T06:23:18.845Z,99593.88
2023-04-02T06:26:22.224Z,99601.41
2023-04-02T06:29:34.090Z,99600.28
2023-04-02T06:32:37.791Z,99607.47
2023-04-02T06:35:41.986Z,99592.03
2023-04-02T06:38:46.352Z,99606.72
2023-04-02T06:42:12.067Z,99609.12
2023-04-02T06:45:22.985Z,99603.31
2023-04-02T06:48:26.298Z,99625.50
2023-04-02T06:51:31.360Z,99607.66
2023-04-02T06:54:34.520Z,99611.87
2023-04-02T06:57:37.106Z,99618.47
2023-04-02T07:00:47.204Z,99608.66
2023-04-02T07:03:50.528Z,99615.84
2023-04-02T07:06:54.110Z,99611.81
2023-04-02T07:09:57.588Z,99616.22
2023-04-02T07:13:02.539Z,99621.34
2023-04-02T07:16:05.230Z,99619.19
2023-04-02T07:19:16.257Z,99617.38
2023-04-02T07:22:19.257Z,99626.87
2023-04-02T07:25:26.327Z,99626.69
2023-04-02T07:28:29.190Z,99628.31
2023-04-02T07:31:31.963Z,99628.69
2023-04-02T07:34:34.245Z,99625.28
2023-04-02T07:37:37.509Z,99636.28
2023-04-02T07:40:39.900Z,99638.69
2023-04-02T07:43:42.650Z,99646.69
2023-04-02T07:46:44.999Z,99652.34
2023-04-02T07:49:47.684Z,99661.53
2023-04-02T07:52:50.297Z,99654.00
2023-04-02T07:55:53.338Z,99653.00
2023-04-02T07:58:55.789Z,99656.69
2023-04-02T08:01:58.941Z,99657.06
2023-04-02T08:05:01.734Z,99657.09
2023-04-02T08:08:04.157Z,99662.03
2023-04-02T08:11:06.945Z,99670.09
2023-04-02T08:14:09.571Z,99668.38
2023-04-02T08:17:12.113Z,99667.19
2023-04-02T08:20:17.851Z,99668.38
2023-04-02T08:23:21.655Z,99675.75
2023-04-02T08:26:24.010Z,99674.75
2023-04-02T08:29:29.215Z,99682.41
2023-04-02T08:32:31.558Z,99681.59
2023-04-02T08:35:34.930Z,99692.78
2023-04-02T08:38:37.641Z,99689.84
2023-04-02T08:41:53.069Z,99689.84
2023-04-02T08:45:20.812Z,99682.25
2023-04-02T08:48:27.213Z,99684.12
2023-04-02T08:51:32.554Z,99685.44
2023-04-02T08:54:42.577Z,99688.53
2023-04-02T08:57:51.155Z,99692.78
2023-04-02T09:00:55.001Z,99696.31
2023-04-02T09:03:58.976Z,99691.69
2023-04-02T09:07:01.801Z,99696.59
2023-04-02T09:10:04.611Z,99694.56
2023-04-02T09:13:13.844Z,99693.41
2023-04-02T09:16:21.429Z,99699.47
2023-04-02T09:19:30.435Z,99699.38
2023-04-02T09:22:33.489Z,99709.66
2023-04-02T09:25:36.336Z,99699.16
2023-04-02T09:28:38.881Z,99700.34
2023-04-02T09:31:46.639Z,99698.97
2023-04-02T09:34:49.110Z,99709.50
2023-04-02T09:38:10.068Z,99706.44
2023-04-02T09:41:21.053Z,99714.53
2023-04-02T09:44:27.464Z,99723.16
2023-04-02T09:47:31.993Z,99720.31
2023-04-02T09:50:35.085Z,99725.31
2023-04-02T09:53:40.518Z,99725.25
2023-04-02T09:57:01.568Z,99715.78
2023-04-02T10:00:32.068Z,99724.53
2023-04-02T10:03:35.445Z,99726.28
2023-04-02T10:06:48.653Z,99731.84
2023-04-02T10:09:57.579Z,99735.19
2023-04-02T10:13:18.840Z,99727.59
2023-04-02T10:16:21.445Z,99731.88
2023-04-02T10:19:26.711Z,99727.75
2023-04-02T10:22:29.411Z,99729.84
2023-04-02T10:25:36.163Z,99729.00
2023-04-02T10:28:45.148Z,99726.94
2023-04-02T10:31:47.818Z,99719.59
2023-04-02T10:34:56.846Z,99718.72
2023-04-02T10:38:14.137Z,99718.72
2023-04-02T10:41:16.804Z,99724.03
2023-04-02T10:44:36.815Z,99724.63
2023-04-02T10:47:49.180Z,99714.22
2023-04-02T10:51:06.822Z,99714.13
2023-04-02T10:54:16.053Z,99702.34
2023-04-02T10:57:36.918Z,99710.47
2023-04-02T11:00:41.540Z,99705.81
2023-04-02T11:03:50.100Z,99708.47
2023-04-02T11:07:11.158Z,99707.50
2023-04-02T11:10:19.708Z,99701.69
2023-04-02T11:13:36.015Z,99716.84
2023-04-02T11:16:41.252Z,99715.97
2023-04-02T11:19:46.119Z,99718.13
2023-04-02T11:23:04.404Z,99707.19
2023-04-02T11:26:28.460Z,99707.81
2023-04-02T11:29:31.797Z,99702.44
2023-04-02T11:32:42.751Z,99702.00
2023-04-02T11:35:45.440Z,99701.97
2023-04-02T11:38:51.802Z,99696.81
2023-04-02T11:42:02.907Z,99698.09
2023-04-02T11:45:21.299Z,99695.50
2023-04-02T11:48:23.955Z,99694.47
2023-04-02T11:51:32.856Z,99691.88
2023-04-02T11:54:37.778Z,99694.91
2023-04-02T11:57:49.711Z,99693.00
2023-04-02T12:01:19.337Z,99696.25
2023-04-02T12:04:28.098Z,99692.91
2023-04-02T12:07:35.067Z,99693.75
2023-04-02T12:10:56.396Z,99684.34
2023-04-02T12:13:59.422Z,99686.25
2023-04-02T12:17:14.093Z,99680.13
2023-04-02T12:20:21.934Z,99680.19
2023-04-02T12:23:29.192Z,99675.09
2023-04-02T12:26:38.960Z,99673.06
2023-04-02T12:29:41.720Z,99674.88
2023-04-02T12:32:44.500Z,99672.97
2023-04-02T12:35:48.065Z,99677.59
2023-04-02T12:38:51.974Z,99676.56
2023-04-02T12:41:54.923Z,99663.28
2023-04-02T12:44:57.378Z,99664.56
2023-04-02T12:48:03.145Z,99671.00
2023-04-02T12:51:05.980Z,99669.34
2023-04-02T12:54:14.325Z,99658.75
2023-04-02T12:57:36.429Z,99660.13
2023-04-02T13:00:39.633Z,99659.28
2023-04-02T13:03:42.250Z,99669.19
2023-04-02T13:06:52.079Z,99659.47
2023-04-02T13:09:55.566Z,99662.34
2023-04-02T13:12:59.745Z,99665.97
2023-04-02T13:16:17.505Z,99666.88
2023-04-02T13:19:28.655Z,99663.50
2023-04-02T13:22:31.784Z,99664.72
2023-04-02T13:25:36.334Z,99659.28
2023-04-02T13:28:39.188Z,99666.37
2023-04-02T13:31:41.987Z,99675.69
2023-04-02T13:34:44.410Z,99669.88
2023-04-02T13:37:47.380Z,99665.34
2023-04-02T13:40:50.108Z,99665.72
2023-04-02T13:43:57.349Z,99668.88
2023-04-02T13:46:59.958Z,99677.84
2023-04-02T13:50:02.793Z,99662.97
2023-04-02T13:53:09.666Z,99668.63
2023-04-02T13:56:13.130Z,99665.34
2023-04-02T13:59:16.366Z,99665.66
2023-04-02T14:02:22.099Z,99665.37
2023-04-02T14:05:31.906Z,99660.38
2023-04-02T14:08:34.351Z,99663.19
2023-04-02T14:11:52.346Z,99665.94
2023-04-02T14:15:08.662Z,99658.69
2023-04-02T14:18:11.425Z,99657.44
2023-04-02T14:21:32.329Z,99665.00
2023-04-02T14:24:49.270Z,99660.09
2023-04-02T14:28:10.436Z,99674.28
2023-04-02T14:31:32.616Z,99667.06
2023-04-02T14:34:54.418Z,99681.22
2023-04-02T14:37:59.842Z,99683.22
2023-04-02T14:41:10.917Z,99691.72
2023-04-02T14:44:13.925Z,99712.03
2023-04-02T14:47:16.763Z,99699.31
2023-04-02T14:50:28.051Z,99723.88
2023-04-02T14:53:41.330Z,99730.59
2023-04-02T14:57:18.865Z,99734.78
2023-04-02T15:00:32.950Z,99750.66
2023-04-02T15:03:43.036Z,99747.47
2023-04-02T15:06:47.779Z,99748.78
2023-04-02T15:09:54.716Z,99771.34
2023-04-02T15:12:57.916Z,99770.03
2023-04-02T15:16:20.046Z,99782.91
2023-04-02T15:19:22.410Z,99789.03
2023-04-02T15:22:34.515Z,99787.69
2023-04-02T15:25:54.664Z,99806.47
2023-04-02T15:28:57.346Z,99804.66
2023-04-02T15:32:02.723Z,99806.31
2023-04-02T15:35:23.993Z,99797.75
2023-04-02T15:38:46.647Z,99796.03
2023-04-02T15:42:07.692Z,99792.09
2023-04-02T15:45:25.445Z,99789.13
2023-04-02T15:48:34.175Z,99784.34
2023-04-02T15:51:44.214Z,99783.16
2023-04-02T15:54:55.968Z,99785.34
2023-04-02T15:58:08.840Z,99779.44
2023-04-02T16:01:16.025Z,99777.84
2023-04-02T16:04:37.691Z,99775.25
2023-04-02T16:07:58.488Z,99773.37
2023-04-02T16:11:01.116Z,99776.00
2023-04-02T16:14:09.293Z,99771.22
2023-04-02T16:17:32.706Z,99773.94
2023-04-02T16:20:37.527Z,99783.91
2023-04-02T16:23:40.592Z,99787.16
2023-04-02T16:27:07.735Z,99792.84
2023-04-02T16:30:25.771Z,99801.03
2023-04-02T16:33:34.386Z,99814.00
2023-04-02T16:36:51.117Z,99815.97
2023-04-02T16:39:53.434Z,99833.06
2023-04-02T16:42:56.192Z,99828.44
2023-04-02T16:46:11.932Z,99839.13
2023-04-02T16:49:21.732Z,99834.47
2023-04-02T16:52:30.107Z,99839.06
2023-04-02T16:55:35.679Z,99828.47
2023-04-02T16:58:57.901Z,99828.44
2023-04-02T17:02:27.104Z,99839.53
2023-04-02T17:05:29.566Z,99841.44
2023-04-02T17:08:41.895Z,99848.63
2023-04-02T17:11:53.022Z,99858.13
2023-04-02T17:15:11.688Z,99853.72
2023-04-02T17:18:26.494Z,99859.16
2023-04-02T17:21:31.105Z,99872.53
2023-04-02T17:24:39.025Z,99880.09
2023-04-02T17:27:44.782Z,99881.56
2023-04-02T17:30:49.384Z,99885.00
2023-04-02T17:33:52.081Z,99896.03
2023-04-02T17:36:54.329Z,99901.06
2023-04-02T17:40:04.166Z,99902.44
2023-04-02T17:43:06.624Z,99909.09
2023-04-02T17:46:23.659Z,99922.16
2023-04-02T17:49:26.053Z,99919.41
2023-04-02T17:52:34.647Z,99932.06
2023-04-02T17:55:47.669Z,99928.22
2023-04-02T17:59:06.964Z,99932.16
2023-04-02T18:02:12.039Z,99937.00
2023-04-02T18:05:18.045Z,99941.81
2023-04-02T18:08:33.318Z,99946.78
2023-04-02T18:11:43.461Z,99950.59
2023-04-02T18:14:58.517Z,99954.19
2023-04-02T18:18:12.528Z,99963.94
2023-04-02T18:21:15.659Z,99970.31
2023-04-02T18:24:30.404Z,99975.84
2023-04-02T18:27:38.897Z,99981.28
2023-04-02T18:30:44.341Z,99988.38
2023-04-02T18:34:13.309Z,100001.56
2023-04-02T18:37:33.115Z,100007.75
2023-04-02T18:40:35.820Z,100007.09
2023-04-02T18:43:47.930Z,100014.34
2023-04-02T18:46:52.248Z,100024.00
2023-04-02T18:50:03.833Z,100025.12
2023-04-02T18:53:14.238Z,100027.03
2023-04-02T18:56:19.001Z,100029.97
2023-04-02T18:59:41.778Z,100036.03
2023-04-02T19:02:48.808Z,100037.97
2023-04-02T19:05:55.584Z,100053.75
2023-04-02T19:09:02.848Z,100051.38
2023-04-02T19:12:21.086Z,100048.09
2023-04-02T19:15:27.113Z,100057.09
2023-04-02T19:18:38.549Z,100056.31
2023-04-02T19:22:01.611Z,100066.94
2023-04-02T19:25:25.412Z,100068.09
2023-04-02T19:28:32.405Z,100077.84
2023-04-02T19:31:41.537Z,100081.41
2023-04-02T19:35:01.656Z,100085.94
2023-04-02T19:38:19.241Z,100086.22
2023-04-02T19:41:22.481Z,100095.09
2023-04-02T19:44:24.935Z,100101.25
2023-04-02T19:47:27.577Z,100102.94
2023-04-02T19:50:30.034Z,100109.16
2023-04-02T19:53:33.313Z,100112.47
2023-04-02T19:56:35.731Z,100115.06
2023-04-02T19:59:38.333Z,100117.84
2023-04-02T20:02:40.736Z,100130.59
2023-04-02T20:05:43.418Z,100139.19
2023-04-02T20:08:45.791Z,100140.09
2023-04-02T20:11:48.936Z,100140.09
2023-04-02T20:14:51.611Z,100142.66
2023-04-02T20:17:54.267Z,100143.59
2023-04-02T20:20:56.866Z,100151.31
2023-04-02T20:23:59.614Z,100156.34
2023-04-02T20:27:01.972Z,100161.47
2023-04-02T20:30:04.866Z,100170.00
2023-04-02T20:33:07.998Z,100173.53
2023-04-02T20:36:13.777Z,100167.41
2023-04-02T20:39:19.473Z,100178.78
2023-04-02T20:42:22.305Z,100182.13
2023-04-02T20:45:27.737Z,100185.53
2023-04-02T20:48:33.260Z,100193.34
2023-04-02T20:51:35.651Z,100191.56
2023-04-02T20:54:38.357Z,100202.72
2023-04-02T20:57:41.052Z,100207.03
2023-04-02T21:00:44.171Z,100216.69
2023-04-02T21:03:46.794Z,100221.94
2023-04-02T21:06:49.436Z,100227.97
2023-04-02T21:09:54.652Z,100234.19
2023-04-02T21:12:57.317Z,100237.97
2023-04-02T21:16:00.218Z,100240.75
2023-04-02T21:19:05.077Z,100230.63
2023-04-02T21:22:07.640Z,100236.03
2023-04-02T21:25:10.280Z,100246.50
2023-04-02T21:28:12.940Z,100255.94
2023-04-02T21:31:16.985Z,100243.72
2023-04-02T21:34:19.395Z,100262.62
2023-04-02T21:37:22.112Z,100261.59
2023-04-02T21:40:24.429Z,100252.88
2023-04-02T21:43:26.962Z,100256.44
2023-04-02T21:46:31.144Z,100270.28
2023-04-02T21:49:33.750Z,100259.88
2023-04-02T21:52:36.290Z,100271.94
2023-04-02T21:55:38.921Z,100284.13
2023-04-02T21:58:43.325Z,100279.72
2023-04-02T22:01:47.537Z,100282.34
2023-04-02T22:04:51.970Z,100287.63
2023-04-02T22:07:54.268Z,100284.34
2023-04-02T22:10:56.825Z,100289.34
2023-04-02T22:13:59.780Z,100293.97
2023-04-02T22:17:03.426Z,100289.81
2023-04-02T22:20:06.493Z,100295.84
2023-04-02T22:23:10.076Z,100295.00
2023-04-02T22:26:13.008Z,100300.97
2023-04-02T22:29:16.430Z,100300.16
2023-04-02T22:32:18.765Z,100309.66
2023-04-02T22:35:21.335Z,100308.94
2023-04-02T22:38:25.868Z,100316.78
2023-04-02T22:41:29.437Z,100315.91
2023-04-02T22:44:31.960Z,100320.25
2023-04-02T22:47:34.647Z,100327.16
2023-04-02T22:50:37.225Z,100325.59
2023-04-02T22:53:40.809Z,100324.09
2023-04-02T22:56:43.190Z,100335.28
2023-04-02T22:59:46.051Z,100336.28
2023-04-02T23:02:48.602Z,100336.19
2023-04-02T23:05:58.845Z,100338.00
2023-04-02T23:09:01.232Z,100338.09
2023-04-02T23:12:04.284Z,100336.41
2023-04-02T23:15:06.965Z,100340.81
2023-04-02T23:18:09.593Z,100339.88
2023-04-02T23:21:11.994Z,100344.16
2023-04-02T23:24:14.750Z,100344.28
2023-04-02T23:27:17.263Z,100348.50
2023-04-02T23:30:19.880Z,100348.66
2023-04-02T23:33:22.238Z,100343.41
2023-04-02T23:36:26.173Z,100343.47
2023-04-02T23:39:29.653Z,100346.06
2023-04-02T23:42:32.333Z,100346.19
2023-04-02T23:45:34.926Z,100344.47
2023-04-02T23:48:37.581Z,100345.37
2023-04-02T23:51:40.733Z,100352.22
2023-04-02T23:54:43.577Z,100354.88
2023-04-02T23:57:46.239Z,100363.53
